Time;durP1;ratioP1;P1;durP2;ratioP2;P2;SDS_P1;SDS_P2;PMS_P1;PMS_P2;Temp;Humidity;BMP_temperature;BMP_pressure;BME280_temperature;BME280_humidity;BME280_pressure;Samples;Min_cycle;Max_cycle;Signal;HPM_P1;HPM_P2
2021/10/30 00:01:00;;;;;;;29.15;12.85;;;;;;;;;;5077801;28;20079;-59
2021/10/30 00:03:27;;;;;;;25.80;10.63;;;;;;;;;;5077520;28;20075;-59
2021/10/30 00:05:53;;;;;;;24.58;11.50;;;;;;;;;;5077391;28;20072;-59
2021/10/30 00:08:19;;;;;;;27.73;12.18;;;;;;;;;;5077557;28;20108;-59
2021/10/30 00:10:46;;;;;;;35.78;13.02;;;;;;;;;;5075045;28;20491;-59
2021/10/30 00:13:12;;;;;;;25.17;12.40;;;;;;;;;;5088229;28;20043;-58
2021/10/30 00:15:40;;;;;;;22.25;11.35;;;;;;;;;;5078038;28;20500;-59
2021/10/30 00:18:06;;;;;;;30.15;11.80;;;;;;;;;;5077498;28;20068;-59
2021/10/30 00:20:33;;;;;;;24.98;11.15;;;;;;;;;;5077419;28;20048;-59
2021/10/30 00:23:00;;;;;;;29.33;12.10;;;;;;;;;;5076461;28;20499;-59
2021/10/30 00:25:26;;;;;;;31.33;12.32;;;;;;;;;;5073554;28;20064;-59
2021/10/30 00:27:52;;;;;;;26.23;12.65;;;;;;;;;;5076821;28;20113;-58
2021/10/30 00:30:18;;;;;;;28.23;11.63;;;;;;;;;;5077123;28;20044;-59
2021/10/30 00:32:45;;;;;;;26.13;12.27;;;;;;;;;;5077330;28;20056;-59
2021/10/30 00:35:12;;;;;;;31.40;12.85;;;;;;;;;;5077166;28;20130;-58
2021/10/30 00:37:38;;;;;;;26.02;11.98;;;;;;;;;;5073157;28;20392;-59
2021/10/30 00:40:05;;;;;;;31.80;13.80;;;;;;;;;;5075991;28;20075;-58
2021/10/30 00:42:31;;;;;;;25.10;11.13;;;;;;;;;;5086383;28;20043;-59
2021/10/30 00:44:57;;;;;;;28.05;12.63;;;;;;;;;;5081593;28;20075;-59
2021/10/30 00:47:24;;;;;;;30.58;12.60;;;;;;;;;;5076671;28;20486;-59
2021/10/30 00:49:50;;;;;;;28.65;12.98;;;;;;;;;;5074600;28;20123;-58
2021/10/30 00:52:17;;;;;;;31.00;11.70;;;;;;;;;;5088835;28;20441;-59
2021/10/30 00:54:44;;;;;;;28.48;12.23;;;;;;;;;;5076821;28;20123;-59
2021/10/30 00:57:11;;;;;;;22.05;11.55;;;;;;;;;;5077297;28;20526;-59
2021/10/30 00:59:38;;;;;;;28.08;11.98;;;;;;;;;;5077675;28;20044;-59
2021/10/30 01:02:04;;;;;;;21.75;11.75;;;;;;;;;;5076874;28;20044;-59
2021/10/30 01:04:31;;;;;;;24.52;11.25;;;;;;;;;;5072928;28;20419;-58
2021/10/30 01:06:58;;;;;;;30.50;12.35;;;;;;;;;;5076991;28;20041;-59
2021/10/30 01:09:25;;;;;;;31.50;12.70;;;;;;;;;;5077168;28;20125;-59
2021/10/30 01:11:52;;;;;;;23.08;12.20;;;;;;;;;;5077176;28;20123;-58
2021/10/30 01:14:19;;;;;;;34.65;14.18;;;;;;;;;;5077442;28;20056;-59
2021/10/30 01:17:03;;;;;;;36.08;14.43;;;;;;;;;;5074158;28;20056;-59
2021/10/30 01:19:30;;;;;;;30.48;14.50;;;;;;;;;;5072731;28;20066;-59
2021/10/30 01:21:57;;;;;;;31.00;14.82;;;;;;;;;;5076806;28;20076;-59
2021/10/30 01:24:23;;;;;;;47.35;18.67;;;;;;;;;;5080064;28;20049;-59
2021/10/30 01:26:50;;;;;;;35.85;16.63;;;;;;;;;;5081185;28;20040;-59
2021/10/30 01:29:17;;;;;;;39.72;16.92;;;;;;;;;;5079559;28;20091;-59
2021/10/30 01:31:43;;;;;;;53.28;21.73;;;;;;;;;;5092619;28;20090;-59
2021/10/30 01:34:11;;;;;;;58.75;20.50;;;;;;;;;;5078940;28;20084;-59
2021/10/30 01:36:37;;;;;;;49.42;19.23;;;;;;;;;;5090919;28;20570;-59
2021/10/30 01:39:05;;;;;;;43.30;17.00;;;;;;;;;;5084689;28;20048;-59
2021/10/30 01:41:31;;;;;;;36.17;14.95;;;;;;;;;;5080737;28;20045;-59
2021/10/30 01:43:58;;;;;;;39.70;15.98;;;;;;;;;;5079636;28;20495;-59
2021/10/30 01:46:25;;;;;;;31.90;13.85;;;;;;;;;;5077359;28;20056;-58
2021/10/30 01:48:52;;;;;;;29.42;13.85;;;;;;;;;;5079218;28;20496;-59
2021/10/30 01:51:20;;;;;;;33.83;13.13;;;;;;;;;;5080618;28;20530;-59
2021/10/30 01:53:46;;;;;;;35.97;13.75;;;;;;;;;;5080512;28;20044;-59
2021/10/30 01:56:13;;;;;;;32.75;14.15;;;;;;;;;;5080553;28;20574;-59
2021/10/30 01:58:39;;;;;;;30.73;13.63;;;;;;;;;;5076822;28;20102;-59
2021/10/30 02:01:07;;;;;;;39.28;15.70;;;;;;;;;;5078415;28;20101;-59
2021/10/30 02:03:34;;;;;;;31.23;13.25;;;;;;;;;;5081029;28;20464;-59
2021/10/30 02:06:02;;;;;;;31.13;13.43;;;;;;;;;;5080262;28;20071;-58
2021/10/30 02:08:29;;;;;;;37.70;14.95;;;;;;;;;;5080515;28;20040;-59
2021/10/30 02:10:58;;;;;;;29.10;12.95;;;;;;;;;;5092210;28;20051;-59
2021/10/30 02:13:24;;;;;;;30.13;14.38;;;;;;;;;;5076839;28;20086;-59
2021/10/30 02:15:52;;;;;;;32.60;14.95;;;;;;;;;;5079641;28;20124;-58
2021/10/30 02:18:19;;;;;;;38.30;15.02;;;;;;;;;;5080717;28;20049;-59
2021/10/30 02:20:46;;;;;;;37.85;16.50;;;;;;;;;;5079788;28;20048;-58
2021/10/30 02:23:12;;;;;;;34.28;14.55;;;;;;;;;;5080045;28;20062;-59
2021/10/30 02:25:39;;;;;;;42.97;15.10;;;;;;;;;;5076575;28;23764;-58
2021/10/30 02:28:05;;;;;;;37.45;14.20;;;;;;;;;;5078485;28;20084;-60
2021/10/30 02:30:31;;;;;;;34.45;13.68;;;;;;;;;;5079997;28;20052;-58
2021/10/30 02:33:00;;;;;;;32.35;14.07;;;;;;;;;;5079939;28;20041;-59
2021/10/30 02:35:26;;;;;;;32.63;14.50;;;;;;;;;;5079353;28;20048;-58
2021/10/30 02:37:53;;;;;;;33.05;14.82;;;;;;;;;;5077977;28;20041;-58
2021/10/30 02:40:19;;;;;;;30.40;14.40;;;;;;;;;;5077100;28;20040;-58
2021/10/30 02:42:45;;;;;;;34.60;15.38;;;;;;;;;;5079425;28;20071;-58
2021/10/30 02:45:12;;;;;;;36.47;14.75;;;;;;;;;;5079445;28;20048;-58
2021/10/30 02:47:38;;;;;;;39.75;16.30;;;;;;;;;;5080813;28;20032;-59
2021/10/30 02:50:06;;;;;;;32.10;15.15;;;;;;;;;;5088347;28;20048;-58
2021/10/30 02:52:32;;;;;;;44.00;16.85;;;;;;;;;;5075558;28;20040;-59
2021/10/30 02:54:58;;;;;;;40.03;16.88;;;;;;;;;;5079368;28;20045;-59
2021/10/30 02:57:25;;;;;;;38.22;15.25;;;;;;;;;;5079644;28;20068;-59
2021/10/30 02:59:54;;;;;;;38.88;16.38;;;;;;;;;;5079148;28;20070;-58
2021/10/30 03:02:20;;;;;;;35.95;15.65;;;;;;;;;;5079354;28;20058;-58
2021/10/30 03:04:47;;;;;;;37.60;15.73;;;;;;;;;;5076744;28;20064;-59
2021/10/30 03:07:14;;;;;;;34.80;15.10;;;;;;;;;;5076799;28;20047;-59
2021/10/30 03:09:40;;;;;;;33.53;16.48;;;;;;;;;;5079285;28;20057;-59
2021/10/30 03:12:08;;;;;;;34.40;14.73;;;;;;;;;;5079062;28;20076;-58
2021/10/30 03:14:35;;;;;;;32.30;15.63;;;;;;;;;;5078509;28;20044;-59
2021/10/30 03:17:05;;;;;;;30.63;14.45;;;;;;;;;;5078794;28;20118;-59
2021/10/30 03:19:33;;;;;;;41.38;16.20;;;;;;;;;;5074392;28;20491;-58
2021/10/30 03:21:59;;;;;;;34.97;14.23;;;;;;;;;;5078181;28;20051;-58
2021/10/30 03:24:25;;;;;;;34.15;14.90;;;;;;;;;;5078450;28;20056;-59
2021/10/30 03:26:51;;;;;;;44.63;16.60;;;;;;;;;;5081784;28;20129;-58
2021/10/30 03:29:18;;;;;;;31.50;15.27;;;;;;;;;;5088120;28;20054;-58
2021/10/30 03:31:44;;;;;;;29.02;14.52;;;;;;;;;;5075290;28;20044;-58
2021/10/30 03:34:10;;;;;;;40.05;16.00;;;;;;;;;;5076319;28;20124;-58
2021/10/30 03:36:36;;;;;;;29.42;14.90;;;;;;;;;;5088245;28;20506;-58
2021/10/30 03:39:03;;;;;;;35.00;14.75;;;;;;;;;;5082421;28;20483;-58
2021/10/30 03:41:30;;;;;;;35.08;15.80;;;;;;;;;;5078310;28;20122;-57
2021/10/30 03:43:56;;;;;;;34.40;15.82;;;;;;;;;;5077262;28;20047;-58
2021/10/30 03:46:22;;;;;;;33.78;15.20;;;;;;;;;;5074924;28;20123;-58
2021/10/30 03:48:49;;;;;;;34.58;15.57;;;;;;;;;;5077747;28;20591;-58
2021/10/30 03:51:15;;;;;;;34.97;15.43;;;;;;;;;;5078240;28;20135;-58
2021/10/30 03:53:42;;;;;;;33.42;14.32;;;;;;;;;;5078501;28;20127;-58
2021/10/30 03:56:08;;;;;;;38.50;15.13;;;;;;;;;;5078334;28;20482;-59
2021/10/30 03:58:35;;;;;;;36.22;14.20;;;;;;;;;;5073887;28;20040;-58
2021/10/30 04:01:01;;;;;;;27.85;13.38;;;;;;;;;;5089599;28;20127;-59
2021/10/30 04:03:27;;;;;;;32.53;13.38;;;;;;;;;;5078520;28;20041;-58
2021/10/30 04:05:54;;;;;;;29.02;13.13;;;;;;;;;;5081778;28;20043;-59
2021/10/30 04:08:20;;;;;;;28.10;13.55;;;;;;;;;;5087930;28;20044;-58
2021/10/30 04:10:47;;;;;;;32.20;13.40;;;;;;;;;;5075090;28;20079;-59
2021/10/30 04:13:13;;;;;;;26.42;12.38;;;;;;;;;;5075794;28;20462;-58
2021/10/30 04:15:40;;;;;;;25.42;12.25;;;;;;;;;;5078271;28;20408;-58
2021/10/30 04:18:06;;;;;;;29.90;14.20;;;;;;;;;;5077747;28;20471;-58
2021/10/30 04:20:32;;;;;;;40.03;15.80;;;;;;;;;;5077581;28;20048;-58
2021/10/30 04:22:59;;;;;;;30.73;11.70;;;;;;;;;;5076860;28;20044;-58
2021/10/30 04:25:25;;;;;;;26.83;13.52;;;;;;;;;;5073965;28;20091;-58
2021/10/30 04:27:51;;;;;;;34.83;13.55;;;;;;;;;;5077247;28;20131;-58
2021/10/30 04:30:17;;;;;;;25.98;12.30;;;;;;;;;;5077679;28;20078;-58
2021/10/30 04:32:44;;;;;;;33.95;14.25;;;;;;;;;;5077604;28;20079;-58
2021/10/30 04:35:11;;;;;;;29.73;13.23;;;;;;;;;;5077461;28;20063;-58
2021/10/30 04:37:38;;;;;;;31.48;13.50;;;;;;;;;;5073589;28;20529;-58
2021/10/30 04:40:05;;;;;;;37.22;14.18;;;;;;;;;;5076276;28;20053;-59
2021/10/30 04:42:31;;;;;;;32.67;13.82;;;;;;;;;;5086817;28;20568;-58
2021/10/30 04:44:57;;;;;;;27.95;12.90;;;;;;;;;;5082106;28;20400;-58
2021/10/30 04:47:24;;;;;;;33.95;13.75;;;;;;;;;;5077082;28;20721;-58
2021/10/30 04:49:51;;;;;;;30.95;14.25;;;;;;;;;;5075203;28;20048;-58
2021/10/30 04:52:17;;;;;;;30.55;12.73;;;;;;;;;;5074523;28;20040;-58
2021/10/30 04:54:44;;;;;;;25.15;12.10;;;;;;;;;;5076660;28;20068;-58
2021/10/30 04:57:10;;;;;;;25.55;13.90;;;;;;;;;;5077352;28;20102;-58
2021/10/30 04:59:36;;;;;;;30.98;14.73;;;;;;;;;;5077194;28;20053;-58
2021/10/30 05:02:03;;;;;;;31.05;13.43;;;;;;;;;;5073975;28;20084;-58
2021/10/30 05:04:29;;;;;;;30.30;12.48;;;;;;;;;;5072903;28;20040;-58
2021/10/30 05:06:56;;;;;;;31.42;13.15;;;;;;;;;;5076931;28;20102;-59
2021/10/30 05:09:24;;;;;;;32.75;14.88;;;;;;;;;;5076301;28;20095;-58
2021/10/30 05:11:50;;;;;;;37.70;14.77;;;;;;;;;;5076956;28;20047;-58
2021/10/30 05:14:16;;;;;;;28.60;13.32;;;;;;;;;;5079486;28;20036;-58
2021/10/30 05:16:43;;;;;;;34.72;14.52;;;;;;;;;;5088952;28;20075;-58
2021/10/30 05:19:09;;;;;;;38.17;15.30;;;;;;;;;;5073966;28;20118;-58
2021/10/30 05:21:35;;;;;;;40.00;14.32;;;;;;;;;;5077560;28;20053;-59
2021/10/30 05:24:02;;;;;;;32.72;14.90;;;;;;;;;;5081394;28;20083;-58
2021/10/30 05:26:28;;;;;;;39.33;14.80;;;;;;;;;;5085906;28;20097;-58
2021/10/30 05:28:54;;;;;;;35.85;15.98;;;;;;;;;;5076382;28;20561;-59
2021/10/30 05:31:21;;;;;;;39.60;15.80;;;;;;;;;;5074413;28;20542;-59
2021/10/30 05:33:48;;;;;;;33.10;15.68;;;;;;;;;;5076801;28;20051;-58
2021/10/30 05:36:34;;;;;;;42.45;15.20;;;;;;;;;;5071900;28;20087;-58
2021/10/30 05:39:16;;;;;;;37.10;16.02;;;;;;;;;;5075820;28;20556;-58
2021/10/30 05:41:43;;;;;;;34.13;13.85;;;;;;;;;;5077093;28;20072;-58
2021/10/30 05:44:10;;;;;;;41.17;14.60;;;;;;;;;;5076960;28;20059;-58
2021/10/30 05:46:37;;;;;;;32.65;14.90;;;;;;;;;;5071853;28;20128;-58
2021/10/30 05:49:05;;;;;;;30.15;14.35;;;;;;;;;;5086910;28;20107;-58
2021/10/30 05:51:31;;;;;;;31.05;14.85;;;;;;;;;;5082347;28;20457;-58
2021/10/30 05:53:57;;;;;;;29.63;14.00;;;;;;;;;;5083837;28;20048;-58
2021/10/30 05:56:24;;;;;;;38.35;16.77;;;;;;;;;;5084718;28;20571;-59
2021/10/30 05:58:50;;;;;;;37.28;14.90;;;;;;;;;;5086618;28;20044;-59
2021/10/30 06:01:16;;;;;;;37.72;16.33;;;;;;;;;;5087064;28;20474;-58
2021/10/30 06:03:43;;;;;;;36.03;15.85;;;;;;;;;;5083378;28;20064;-59
2021/10/30 06:06:09;;;;;;;33.10;14.77;;;;;;;;;;5079271;28;20048;-58
2021/10/30 06:08:35;;;;;;;35.40;15.90;;;;;;;;;;5084290;28;20127;-58
2021/10/30 06:11:02;;;;;;;27.77;14.98;;;;;;;;;;5089616;28;20044;-59
2021/10/30 06:13:28;;;;;;;34.05;14.75;;;;;;;;;;5086224;28;20056;-58
2021/10/30 06:15:54;;;;;;;32.35;15.05;;;;;;;;;;5088757;28;20043;-58
2021/10/30 06:18:21;;;;;;;30.95;14.30;;;;;;;;;;5087782;28;20064;-58
2021/10/30 06:20:47;;;;;;;34.70;14.77;;;;;;;;;;5088160;28;20079;-58
2021/10/30 06:23:15;;;;;;;36.80;15.65;;;;;;;;;;5089695;28;20101;-58
2021/10/30 06:25:43;;;;;;;49.40;21.95;;;;;;;;;;5086500;28;20492;-59
2021/10/30 06:28:09;;;;;;;45.65;19.25;;;;;;;;;;5087914;28;20094;-59
2021/10/30 06:30:36;;;;;;;39.70;17.77;;;;;;;;;;5088373;28;20056;-59
2021/10/30 06:33:02;;;;;;;39.05;15.93;;;;;;;;;;5084740;28;20119;-59
2021/10/30 06:35:28;;;;;;;34.08;15.07;;;;;;;;;;5087298;28;20099;-58
2021/10/30 06:37:56;;;;;;;38.60;18.20;;;;;;;;;;5088648;28;20066;-58
2021/10/30 06:40:22;;;;;;;36.50;15.32;;;;;;;;;;5089100;28;20519;-58
2021/10/30 06:42:49;;;;;;;37.58;17.60;;;;;;;;;;5077671;28;20476;-58
2021/10/30 06:45:15;;;;;;;32.60;17.83;;;;;;;;;;5078482;28;20480;-57
2021/10/30 06:47:41;;;;;;;30.65;15.20;;;;;;;;;;5079022;28;20131;-58
2021/10/30 06:50:08;;;;;;;39.00;17.45;;;;;;;;;;5079081;28;20491;-58
2021/10/30 06:52:38;;;;;;;39.22;18.60;;;;;;;;;;5075071;28;20040;-58
2021/10/30 06:55:13;;;;;;;42.13;16.67;;;;;;;;;;5089673;28;20080;-57
2021/10/30 06:57:40;;;;;;;34.72;17.23;;;;;;;;;;5087358;28;20077;-58
2021/10/30 07:00:07;;;;;;;43.45;16.30;;;;;;;;;;5080821;28;20461;-58
2021/10/30 07:02:34;;;;;;;34.17;15.63;;;;;;;;;;5079218;28;20494;-58
2021/10/30 07:05:00;;;;;;;35.60;16.63;;;;;;;;;;5077580;28;20146;-58
2021/10/30 07:07:27;;;;;;;39.75;15.32;;;;;;;;;;5075344;28;20052;-58
2021/10/30 07:09:59;;;;;;;39.67;14.43;;;;;;;;;;5078579;28;20123;-58
2021/10/30 07:12:29;;;;;;;30.65;15.35;;;;;;;;;;5078902;28;20487;-58
2021/10/30 07:14:55;;;;;;;31.02;14.57;;;;;;;;;;5078621;28;20036;-58
2021/10/30 07:17:22;;;;;;;26.23;13.82;;;;;;;;;;5078769;28;20130;-58
2021/10/30 07:19:49;;;;;;;32.47;14.40;;;;;;;;;;5075908;28;20522;-58
2021/10/30 07:22:16;;;;;;;27.75;14.15;;;;;;;;;;5072260;28;20075;-58
2021/10/30 07:24:43;;;;;;;32.65;15.00;;;;;;;;;;5078293;28;20051;-58
2021/10/30 07:27:10;;;;;;;27.10;14.48;;;;;;;;;;5078638;28;20036;-58
2021/10/30 07:29:36;;;;;;;32.33;14.60;;;;;;;;;;5078557;28;20072;-58
2021/10/30 07:32:03;;;;;;;31.77;15.10;;;;;;;;;;5081913;28;20098;-57
2021/10/30 07:34:29;;;;;;;36.88;16.02;;;;;;;;;;5074296;28;20098;-57
2021/10/30 07:36:55;;;;;;;31.50;15.52;;;;;;;;;;5077900;28;20094;-59
2021/10/30 07:39:22;;;;;;;32.88;14.85;;;;;;;;;;5084816;28;20094;-58
2021/10/30 07:41:48;;;;;;;27.48;12.35;;;;;;;;;;5083894;28;20094;-59
2021/10/30 07:44:15;;;;;;;29.08;13.80;;;;;;;;;;5077625;28;20503;-56
2021/10/30 07:46:41;;;;;;;28.65;15.00;;;;;;;;;;5074376;28;20079;-56
2021/10/30 07:49:07;;;;;;;30.33;15.88;;;;;;;;;;5076122;28;20072;-57
2021/10/30 07:51:34;;;;;;;33.40;14.98;;;;;;;;;;5078260;28;20048;-57
2021/10/30 07:54:00;;;;;;;37.25;15.57;;;;;;;;;;5077690;28;20040;-58
2021/10/30 07:56:26;;;;;;;37.35;16.02;;;;;;;;;;5077594;28;20040;-57
2021/10/30 07:58:53;;;;;;;34.65;15.85;;;;;;;;;;5074825;28;20067;-57
2021/10/30 08:01:19;;;;;;;33.95;15.85;;;;;;;;;;5089532;28;20055;-57
2021/10/30 08:03:46;;;;;;;32.72;15.88;;;;;;;;;;5077274;28;20049;-57
2021/10/30 08:06:12;;;;;;;31.08;15.63;;;;;;;;;;5077330;28;20102;-57
2021/10/30 08:08:38;;;;;;;31.70;15.40;;;;;;;;;;5077705;28;20048;-57
2021/10/30 08:11:05;;;;;;;38.35;15.05;;;;;;;;;;5077324;28;20047;-58
2021/10/30 08:13:31;;;;;;;33.60;14.50;;;;;;;;;;5073050;28;20048;-57
2021/10/30 08:15:58;;;;;;;27.55;12.95;;;;;;;;;;5076905;28;20094;-57
2021/10/30 08:18:25;;;;;;;30.60;13.73;;;;;;;;;;5077097;28;20053;-57
2021/10/30 08:20:51;;;;;;;30.20;13.57;;;;;;;;;;5076937;28;20083;-57
2021/10/30 08:23:18;;;;;;;25.02;13.73;;;;;;;;;;5077136;28;20090;-58
2021/10/30 08:25:44;;;;;;;26.10;12.23;;;;;;;;;;5073868;28;20048;-58
2021/10/30 08:28:11;;;;;;;23.58;12.23;;;;;;;;;;5074909;28;20539;-58
2021/10/30 08:30:37;;;;;;;26.27;13.68;;;;;;;;;;5077646;28;20083;-59
2021/10/30 08:33:03;;;;;;;25.65;13.40;;;;;;;;;;5076360;28;20044;-58
2021/10/30 08:35:29;;;;;;;29.52;13.50;;;;;;;;;;5076996;28;20609;-58
2021/10/30 08:37:56;;;;;;;23.25;12.45;;;;;;;;;;5074143;28;20042;-58
2021/10/30 08:40:22;;;;;;;28.30;13.65;;;;;;;;;;5088878;28;20522;-58
2021/10/30 08:42:49;;;;;;;26.48;12.73;;;;;;;;;;5076775;28;20116;-59
2021/10/30 08:45:15;;;;;;;27.52;13.98;;;;;;;;;;5076902;28;20460;-57
2021/10/30 08:47:44;;;;;;;27.10;12.45;;;;;;;;;;5076826;28;20395;-57
2021/10/30 08:50:10;;;;;;;29.02;13.90;;;;;;;;;;5076726;28;20075;-57
2021/10/30 08:52:37;;;;;;;22.98;12.10;;;;;;;;;;5072816;28;20100;-57
2021/10/30 08:55:05;;;;;;;22.38;12.93;;;;;;;;;;5076152;28;20040;-58
2021/10/30 08:57:31;;;;;;;28.23;13.23;;;;;;;;;;5071267;28;20556;-57
2021/10/30 09:00:13;;;;;;;22.23;12.48;;;;;;;;;;5076617;28;20161;-58
2021/10/30 09:02:40;;;;;;;24.80;13.15;;;;;;;;;;5076312;28;20491;-58
2021/10/30 09:05:17;;;;;;;23.13;12.57;;;;;;;;;;5076515;28;20048;-57
2021/10/30 09:07:45;;;;;;;20.23;12.57;;;;;;;;;;5073722;28;20575;-58
2021/10/30 09:10:16;;;;;;;24.30;13.60;;;;;;;;;;5074201;28;20140;-58
2021/10/30 09:12:53;;;;;;;18.38;10.65;;;;;;;;;;5086715;28;20101;-58
2021/10/30 09:15:29;;;;;;;23.13;12.85;;;;;;;;;;5079097;28;20046;-58
2021/10/30 09:17:55;;;;;;;29.38;14.10;;;;;;;;;;5077254;28;20119;-58
2021/10/30 09:20:29;;;;;;;23.98;13.82;;;;;;;;;;5076414;28;20095;-57
2021/10/30 09:22:56;;;;;;;23.90;12.85;;;;;;;;;;5074079;28;20065;-59
2021/10/30 09:25:22;;;;;;;26.52;13.68;;;;;;;;;;5070683;28;21215;-58
2021/10/30 09:27:51;;;;;;;24.02;13.13;;;;;;;;;;5076144;28;20118;-58
2021/10/30 09:30:19;;;;;;;26.73;13.65;;;;;;;;;;5075921;28;20132;-58
2021/10/30 09:32:55;;;;;;;24.13;12.88;;;;;;;;;;5076083;28;20044;-59
2021/10/30 09:35:24;;;;;;;23.48;12.70;;;;;;;;;;5076114;28;20119;-59
2021/10/30 09:37:51;;;;;;;23.83;12.70;;;;;;;;;;5080949;28;20442;-60
2021/10/30 09:40:20;;;;;;;24.13;12.75;;;;;;;;;;5077543;28;20040;-58
2021/10/30 09:42:48;;;;;;;22.60;12.65;;;;;;;;;;5086722;28;20059;-58
2021/10/30 09:45:14;;;;;;;21.98;11.93;;;;;;;;;;5078419;28;20492;-59
2021/10/30 09:47:45;;;;;;;23.00;12.23;;;;;;;;;;5085285;28;20127;-58
2021/10/30 09:50:25;;;;;;;19.67;11.70;;;;;;;;;;5090241;28;20539;-60
2021/10/30 09:52:54;;;;;;;21.40;11.93;;;;;;;;;;5085327;28;20044;-60
2021/10/30 09:55:27;;;;;;;22.77;12.48;;;;;;;;;;5082722;28;20079;-60
2021/10/30 09:58:00;;;;;;;20.08;11.45;;;;;;;;;;5086392;28;20048;-60
2021/10/30 10:00:27;;;;;;;22.10;12.30;;;;;;;;;;5080256;28;20606;-60
2021/10/30 10:02:58;;;;;;;20.80;10.68;;;;;;;;;;5077600;28;20435;-60
2021/10/30 10:05:27;;;;;;;21.88;11.77;;;;;;;;;;5080060;28;20080;-61
2021/10/30 10:07:53;;;;;;;20.00;11.27;;;;;;;;;;5077827;28;20080;-61
2021/10/30 10:10:21;;;;;;;19.27;10.90;;;;;;;;;;5075320;28;20048;-60
2021/10/30 10:12:48;;;;;;;22.08;11.45;;;;;;;;;;5093251;28;20401;-60
2021/10/30 10:15:15;;;;;;;20.10;11.27;;;;;;;;;;5077756;28;20111;-60
2021/10/30 10:17:43;;;;;;;22.77;12.07;;;;;;;;;;5077979;28;20060;-61
2021/10/30 10:20:09;;;;;;;17.92;10.65;;;;;;;;;;5077732;28;20632;-61
2021/10/30 10:22:38;;;;;;;21.55;11.80;;;;;;;;;;5073473;28;20460;-61
2021/10/30 10:25:24;;;;;;;22.00;11.52;;;;;;;;;;5090504;28;20075;-60
2021/10/30 10:27:51;;;;;;;27.67;11.80;;;;;;;;;;5079325;28;20816;-60
2021/10/30 10:30:17;;;;;;;18.55;10.05;;;;;;;;;;5079528;28;20045;-61
2021/10/30 10:32:43;;;;;;;29.58;14.48;;;;;;;;;;5079509;28;20060;-60
2021/10/30 10:35:15;;;;;;;23.30;11.98;;;;;;;;;;5076913;28;20072;-60
2021/10/30 10:37:50;;;;;;;29.38;15.02;;;;;;;;;;5091229;28;20147;-60
2021/10/30 10:40:27;;;;;;;23.73;11.70;;;;;;;;;;5076846;28;20064;-60
2021/10/30 10:42:53;;;;;;;20.55;12.20;;;;;;;;;;5079172;28;20051;-59
2021/10/30 10:45:20;;;;;;;21.90;11.38;;;;;;;;;;5079585;28;20530;-60
2021/10/30 10:47:50;;;;;;;21.77;11.73;;;;;;;;;;5079239;28;20499;-61
2021/10/30 10:50:25;;;;;;;18.33;11.27;;;;;;;;;;5079391;28;20040;-61
2021/10/30 10:53:01;;;;;;;30.58;13.60;;;;;;;;;;5076675;28;20526;-60
2021/10/30 10:55:32;;;;;;;32.70;15.40;;;;;;;;;;5075513;28;20049;-61
2021/10/30 10:58:00;;;;;;;23.23;13.98;;;;;;;;;;5078265;28;20587;-60
2021/10/30 11:00:26;;;;;;;17.17;10.95;;;;;;;;;;5079078;28;20044;-60
2021/10/30 11:02:53;;;;;;;22.35;13.60;;;;;;;;;;5078938;28;20483;-61
2021/10/30 11:05:23;;;;;;;22.48;12.95;;;;;;;;;;5079246;28;20491;-61
2021/10/30 11:07:49;;;;;;;25.60;14.45;;;;;;;;;;5076069;28;20051;-61
2021/10/30 11:10:20;;;;;;;25.10;13.35;;;;;;;;;;5076379;28;20045;-61
2021/10/30 11:13:01;;;;;;;23.48;12.98;;;;;;;;;;5074048;28;20123;-61
2021/10/30 11:15:28;;;;;;;23.20;12.38;;;;;;;;;;5073070;28;20076;-60
2021/10/30 11:20:34;;;;;;;27.52;13.73;;;;;;;;;;5072753;28;20123;-61
2021/10/30 11:23:02;;;;;;;23.58;12.57;;;;;;;;;;5075824;28;20123;-61
2021/10/30 11:25:29;;;;;;;17.73;10.68;;;;;;;;;;5090561;28;20092;-61
2021/10/30 11:27:56;;;;;;;16.00;10.45;;;;;;;;;;5078194;28;20044;-61
2021/10/30 11:30:40;;;;;;;21.67;11.88;;;;;;;;;;5078538;28;20464;-61
2021/10/30 11:33:22;;;;;;;24.38;12.73;;;;;;;;;;5078375;28;20056;-61
2021/10/30 11:36:00;;;;;;;18.88;10.45;;;;;;;;;;5078325;28;20514;-60
2021/10/30 11:38:28;;;;;;;18.65;10.63;;;;;;;;;;5078239;28;20048;-61
2021/10/30 11:40:58;;;;;;;20.95;10.50;;;;;;;;;;5076011;28;20179;-61
2021/10/30 11:43:25;;;;;;;15.00;10.07;;;;;;;;;;5075169;28;20051;-61
2021/10/30 11:45:53;;;;;;;24.00;12.98;;;;;;;;;;5077779;28;20045;-61
2021/10/30 11:48:22;;;;;;;19.55;11.55;;;;;;;;;;5084731;28;20072;-61
2021/10/30 11:50:53;;;;;;;17.88;11.20;;;;;;;;;;5084244;28;20119;-61
2021/10/30 11:53:19;;;;;;;18.15;10.93;;;;;;;;;;5076500;28;20082;-61
2021/10/30 11:55:58;;;;;;;18.15;10.63;;;;;;;;;;5089746;28;20094;-61
2021/10/30 11:58:43;;;;;;;16.58;11.07;;;;;;;;;;5073735;28;20048;-61
2021/10/30 12:01:29;;;;;;;19.58;11.32;;;;;;;;;;5089312;28;20072;-61
2021/10/30 12:04:14;;;;;;;18.52;11.43;;;;;;;;;;5077413;28;20051;-61
2021/10/30 12:06:40;;;;;;;16.15;10.07;;;;;;;;;;5087700;28;20086;-61
2021/10/30 12:09:16;;;;;;;19.42;11.23;;;;;;;;;;5080270;28;20385;-61
2021/10/30 12:11:43;;;;;;;18.05;11.13;;;;;;;;;;5082609;28;20505;-61
2021/10/30 12:14:09;;;;;;;20.30;11.32;;;;;;;;;;5077871;28;20106;-62
2021/10/30 12:16:36;;;;;;;19.83;10.65;;;;;;;;;;5073246;28;20120;-61
2021/10/30 12:19:08;;;;;;;21.83;10.90;;;;;;;;;;5076674;28;20044;-61
2021/10/30 12:21:36;;;;;;;16.65;10.55;;;;;;;;;;5078086;28;20067;-61
2021/10/30 12:24:09;;;;;;;18.23;10.98;;;;;;;;;;5076942;28;20040;-61
2021/10/30 12:26:52;;;;;;;16.45;9.82;;;;;;;;;;5077387;28;20166;-61
2021/10/30 12:29:20;;;;;;;14.98;9.35;;;;;;;;;;5077226;28;20229;-61
2021/10/30 12:31:57;;;;;;;17.45;9.68;;;;;;;;;;5074531;28;20559;-61
2021/10/30 12:34:26;;;;;;;15.13;9.25;;;;;;;;;;5089293;28;20548;-61
2021/10/30 12:36:56;;;;;;;13.75;8.80;;;;;;;;;;5085873;28;20124;-61
2021/10/30 12:39:23;;;;;;;14.18;9.30;;;;;;;;;;5078211;28;20480;-60
2021/10/30 12:42:02;;;;;;;14.80;8.77;;;;;;;;;;5077549;28;20130;-61
2021/10/30 12:44:33;;;;;;;13.02;8.20;;;;;;;;;;5077222;28;20071;-61
2021/10/30 12:47:19;;;;;;;14.68;8.50;;;;;;;;;;5075818;28;20040;-61
2021/10/30 12:49:55;;;;;;;18.15;8.05;;;;;;;;;;5074103;28;20072;-61
2021/10/30 12:52:22;;;;;;;12.13;8.75;;;;;;;;;;5074354;28;20044;-61
2021/10/30 12:54:53;;;;;;;15.35;8.75;;;;;;;;;;5077012;28;20075;-61
2021/10/30 12:57:20;;;;;;;16.48;8.75;;;;;;;;;;5076764;28;20045;-61
2021/10/30 12:59:46;;;;;;;14.68;8.98;;;;;;;;;;5076910;28;20040;-61
2021/10/30 13:02:24;;;;;;;16.60;8.63;;;;;;;;;;5076800;28;20071;-61
2021/10/30 13:04:51;;;;;;;16.45;8.77;;;;;;;;;;5074448;28;20044;-62
2021/10/30 13:07:19;;;;;;;14.35;7.68;;;;;;;;;;5074388;28;20120;-61
2021/10/30 13:09:54;;;;;;;14.52;9.18;;;;;;;;;;5076458;28;20048;-62
2021/10/30 13:12:20;;;;;;;13.13;8.77;;;;;;;;;;5083893;28;20079;-62
2021/10/30 13:14:46;;;;;;;14.68;9.20;;;;;;;;;;5083559;28;20048;-61
2021/10/30 13:17:13;;;;;;;16.30;9.90;;;;;;;;;;5076686;28;20044;-61
2021/10/30 13:19:39;;;;;;;14.63;9.20;;;;;;;;;;5074340;28;20117;-62
2021/10/30 13:22:05;;;;;;;17.73;11.60;;;;;;;;;;5080064;28;20044;-61
2021/10/30 13:24:32;;;;;;;17.63;10.30;;;;;;;;;;5081127;28;20507;-61
2021/10/30 13:27:00;;;;;;;16.65;9.68;;;;;;;;;;5080962;28;20080;-61
2021/10/30 13:29:26;;;;;;;35.90;20.05;;;;;;;;;;5080441;28;20562;-61
2021/10/30 13:31:52;;;;;;;61.08;39.72;;;;;;;;;;5078231;28;20427;-61
2021/10/30 13:34:19;;;;;;;50.33;29.90;;;;;;;;;;5077992;28;20123;-61
2021/10/30 13:36:45;;;;;;;36.97;20.27;;;;;;;;;;5080092;28;20049;-61
2021/10/30 13:39:11;;;;;;;27.42;14.02;;;;;;;;;;5080960;28;20059;-60
2021/10/30 13:41:38;;;;;;;26.75;16.48;;;;;;;;;;5080632;28;20090;-60
2021/10/30 13:44:04;;;;;;;20.25;12.40;;;;;;;;;;5079846;28;20048;-61
2021/10/30 13:46:33;;;;;;;23.88;12.43;;;;;;;;;;5076486;28;20493;-60
2021/10/30 13:49:00;;;;;;;20.00;11.80;;;;;;;;;;5080131;28;20140;-60
2021/10/30 13:51:27;;;;;;;47.75;30.73;;;;;;;;;;5087837;28;20511;-60
2021/10/30 13:53:55;;;;;;;37.88;24.20;;;;;;;;;;5086071;28;20072;-60
2021/10/30 13:56:22;;;;;;;23.77;14.73;;;;;;;;;;5080217;28;20048;-60
2021/10/30 13:58:48;;;;;;;20.80;13.40;;;;;;;;;;5077450;28;20051;-60
2021/10/30 14:01:15;;;;;;;19.25;10.80;;;;;;;;;;5077672;28;20124;-60
2021/10/30 14:03:41;;;;;;;23.00;13.10;;;;;;;;;;5080773;28;20567;-60
2021/10/30 14:06:08;;;;;;;23.52;14.70;;;;;;;;;;5079767;28;20456;-60
2021/10/30 14:08:34;;;;;;;28.10;15.45;;;;;;;;;;5079649;28;20048;-60
2021/10/30 14:11:01;;;;;;;22.58;14.32;;;;;;;;;;5078787;28;20475;-60
2021/10/30 14:13:27;;;;;;;29.55;16.25;;;;;;;;;;5076493;28;20523;-60
2021/10/30 14:15:54;;;;;;;25.73;16.83;;;;;;;;;;5079944;28;20049;-60
2021/10/30 14:18:27;;;;;;;22.67;12.82;;;;;;;;;;5080235;28;20102;-60
2021/10/30 14:20:54;;;;;;;26.25;12.73;;;;;;;;;;5079885;28;20147;-59
2021/10/30 14:23:20;;;;;;;21.77;12.55;;;;;;;;;;5080284;28;20121;-60
2021/10/30 14:25:46;;;;;;;25.55;13.45;;;;;;;;;;5077210;28;20123;-60